createdAt,value
2018-05-29T00:00:12.328Z,6.57
2018-05-29T00:00:46.120Z,7.15
2018-05-29T00:01:19.920Z,7.00
2018-05-29T00:01:52.954Z,7.18
2018-05-29T00:02:25.985Z,6.93
2018-05-29T00:02:59.013Z,6.87
2018-05-29T00:03:32.095Z,8.57
2018-05-29T00:04:05.135Z,5.90
2018-05-29T00:04:38.164Z,6.72
2018-05-29T00:05:11.184Z,7.18
2018-05-29T00:05:44.990Z,9.05
2018-05-29T00:06:18.773Z,6.93
2018-05-29T00:06:52.564Z,6.25
2018-05-29T00:07:26.400Z,6.80
2018-05-29T00:07:59.574Z,6.15
2018-05-29T00:08:32.594Z,6.28
2018-05-29T00:09:05.712Z,6.32
2018-05-29T00:09:38.756Z,6.72
2018-05-29T00:10:11.799Z,6.50
2018-05-29T00:10:44.841Z,6.95
2018-05-29T00:11:18.153Z,6.70
2018-05-29T00:11:51.186Z,6.70
2018-05-29T00:12:24.212Z,7.10
2018-05-29T00:12:57.252Z,7.25
2018-05-29T00:13:30.276Z,6.87
2018-05-29T00:14:04.085Z,6.93
2018-05-29T00:14:37.872Z,6.78
2018-05-29T00:15:11.665Z,6.60
2018-05-29T00:15:45.453Z,6.57
2018-05-29T00:16:19.256Z,6.00
2018-05-29T00:16:53.067Z,7.35
2018-05-29T00:17:26.100Z,6.53
2018-05-29T00:17:59.222Z,6.60
2018-05-29T00:18:32.252Z,6.85
2018-05-29T00:19:05.279Z,6.72
2018-05-29T00:19:38.306Z,6.20
2018-05-29T00:20:12.100Z,6.68
2018-05-29T00:20:45.909Z,6.65
2018-05-29T00:21:19.701Z,6.85
2018-05-29T00:21:53.527Z,7.20
2018-05-29T00:22:26.590Z,6.85
2018-05-29T00:22:59.612Z,7.18
2018-05-29T00:23:32.655Z,7.20
2018-05-29T00:24:05.693Z,6.85
2018-05-29T00:24:38.734Z,7.85
2018-05-29T00:25:11.780Z,6.37
2018-05-29T00:25:44.824Z,7.75
2018-05-29T00:26:17.844Z,6.62
2018-05-29T00:26:50.925Z,6.47
2018-05-29T00:27:23.933Z,6.43
2018-05-29T00:27:56.992Z,6.72
2018-05-29T00:28:30.036Z,7.35
2018-05-29T00:29:03.078Z,7.65
2018-05-29T00:29:36.089Z,6.65
2018-05-29T00:30:09.143Z,6.78
2018-05-29T00:30:42.152Z,6.53
2018-05-29T00:31:15.183Z,7.03
2018-05-29T00:31:48.212Z,6.80
2018-05-29T00:32:21.236Z,7.00
2018-05-29T00:32:54.289Z,7.18
2018-05-29T00:33:27.328Z,6.75
2018-05-29T00:34:00.348Z,6.07
2018-05-29T00:34:33.372Z,6.50
2018-05-29T00:35:06.400Z,6.93
2018-05-29T00:35:39.427Z,6.97
2018-05-29T00:36:12.468Z,6.50
2018-05-29T00:36:45.483Z,7.00
2018-05-29T00:37:18.513Z,6.50
2018-05-29T00:37:51.769Z,6.93
2018-05-29T00:38:24.796Z,6.28
2018-05-29T00:38:57.840Z,6.03
2018-05-29T00:39:30.864Z,7.18
2018-05-29T00:40:04.659Z,7.20
2018-05-29T00:40:38.452Z,6.30
2018-05-29T00:41:12.255Z,7.07
2018-05-29T00:41:46.059Z,7.05
2018-05-29T00:42:19.080Z,6.40
2018-05-29T00:42:52.141Z,6.80
2018-05-29T00:43:25.167Z,6.90
2018-05-29T00:43:58.956Z,6.65
2018-05-29T00:44:32.767Z,6.80
2018-05-29T00:45:05.804Z,6.72
2018-05-29T00:45:38.850Z,6.75
2018-05-29T00:46:11.888Z,7.03
2018-05-29T00:46:45.696Z,7.12
2018-05-29T00:47:18.726Z,7.30
2018-05-29T00:47:51.782Z,5.87
2018-05-29T00:48:24.821Z,6.80
2018-05-29T00:48:57.848Z,6.60
2018-05-29T00:49:30.868Z,6.93
2018-05-29T00:50:03.905Z,6.87
2018-05-29T00:50:37.708Z,7.20
2018-05-29T00:51:11.488Z,6.75
2018-05-29T00:51:45.280Z,7.20
2018-05-29T00:52:19.088Z,7.40
2018-05-29T00:52:52.917Z,6.82
2018-05-29T00:53:25.943Z,7.40
2018-05-29T00:53:58.996Z,7.82
2018-05-29T00:54:32.021Z,7.00
2018-05-29T00:55:17.025Z,7.75
2018-05-29T00:55:50.077Z,7.03
2018-05-29T00:56:23.100Z,6.97
2018-05-29T00:56:56.127Z,7.70
2018-05-29T00:57:29.154Z,7.60
2018-05-29T00:58:02.966Z,6.90
2018-05-29T00:58:35.989Z,6.82
2018-05-29T00:59:09.020Z,6.75
2018-05-29T00:59:42.105Z,7.03
2018-05-29T01:00:15.129Z,7.32
2018-05-29T01:00:48.161Z,6.65
2018-05-29T01:01:21.197Z,7.57
2018-05-29T01:01:54.991Z,7.18
2018-05-29T01:02:28.789Z,7.68
2018-05-29T01:03:01.840Z,7.18
2018-05-29T01:03:34.888Z,6.78
2018-05-29T01:04:07.951Z,6.87
2018-05-29T01:04:40.949Z,7.30
2018-05-29T01:05:13.981Z,7.80
2018-05-29T01:05:47.004Z,6.75
2018-05-29T01:06:20.042Z,7.00
2018-05-29T01:06:53.068Z,6.87
2018-05-29T01:07:26.889Z,8.13
2018-05-29T01:07:59.919Z,7.30
2018-05-29T01:08:32.974Z,9.35
2018-05-29T01:09:06.008Z,7.53
2018-05-29T01:09:39.029Z,9.15
2018-05-29T01:10:12.068Z,7.20
2018-05-29T01:10:45.092Z,7.40
2018-05-29T01:11:18.218Z,7.70
2018-05-29T01:11:51.248Z,7.35
2018-05-29T01:12:24.581Z,7.65
2018-05-29T01:12:57.612Z,7.70
2018-05-29T01:13:31.418Z,7.12
2018-05-29T01:14:05.218Z,7.05
2018-05-29T01:14:38.292Z,7.37
2018-05-29T01:15:11.316Z,7.30
2018-05-29T01:15:44.345Z,7.75
2018-05-29T01:16:17.380Z,8.13
2018-05-29T01:16:50.403Z,7.50
2018-05-29T01:17:23.437Z,7.90
2018-05-29T01:17:56.556Z,7.78
2018-05-29T01:18:29.608Z,7.60
2018-05-29T01:19:03.409Z,7.30
2018-05-29T01:19:36.451Z,6.82
2018-05-29T01:20:09.482Z,7.50
2018-05-29T01:20:42.680Z,6.70
2018-05-29T01:21:15.744Z,7.47
2018-05-29T01:21:49.005Z,8.80
2018-05-29T01:22:22.032Z,7.55
2018-05-29T01:22:55.057Z,6.80
2018-05-29T01:23:28.106Z,7.40
2018-05-29T01:24:01.907Z,7.07
2018-05-29T01:24:34.944Z,7.40
2018-05-29T01:25:07.988Z,7.07
2018-05-29T01:25:41.232Z,6.68
2018-05-29T01:26:15.025Z,7.18
2018-05-29T01:26:48.062Z,7.18
2018-05-29T01:27:21.085Z,7.03
2018-05-29T01:27:54.107Z,7.40
2018-05-29T01:28:27.149Z,7.35
2018-05-29T01:29:00.172Z,7.32
2018-05-29T01:29:33.202Z,7.18
2018-05-29T01:30:06.239Z,7.18
2018-05-29T01:30:40.051Z,8.25
2018-05-29T01:31:13.072Z,7.35
2018-05-29T01:31:46.112Z,8.05
2018-05-29T01:32:19.140Z,7.80
2018-05-29T01:32:52.951Z,8.82
2018-05-29T01:33:25.984Z,7.80
2018-05-29T01:33:59.034Z,8.13
2018-05-29T01:34:32.084Z,7.25
2018-05-29T01:35:05.884Z,7.75
2018-05-29T01:35:38.909Z,7.50
2018-05-29T01:36:11.941Z,7.85
2018-05-29T01:36:45.028Z,7.60
2018-05-29T01:37:18.061Z,6.97
2018-05-29T01:37:51.867Z,7.60
2018-05-29T01:38:24.915Z,7.40
2018-05-29T01:38:59.058Z,7.78
2018-05-29T01:39:32.097Z,7.80
2018-05-29T01:40:05.141Z,7.37
2018-05-29T01:40:38.165Z,7.40
2018-05-29T01:41:11.196Z,7.68
2018-05-29T01:41:44.268Z,7.87
2018-05-29T01:42:17.297Z,7.53
2018-05-29T01:42:50.392Z,7.57
2018-05-29T01:43:23.556Z,7.70
2018-05-29T01:43:56.765Z,8.10
2018-05-29T01:44:29.803Z,7.32
2018-05-29T01:45:02.830Z,8.60
2018-05-29T01:45:35.863Z,7.70
2018-05-29T01:46:08.888Z,7.93
2018-05-29T01:46:41.920Z,7.57
2018-05-29T01:47:15.000Z,8.82
2018-05-29T01:47:48.021Z,7.35
2018-05-29T01:48:21.169Z,7.70
2018-05-29T01:48:54.197Z,7.65
2018-05-29T01:49:27.289Z,7.80
2018-05-29T01:50:00.304Z,8.10
2018-05-29T01:50:33.337Z,8.63
2018-05-29T01:51:06.352Z,7.55
2018-05-29T01:51:39.387Z,7.93
2018-05-29T01:52:12.417Z,7.47
2018-05-29T01:52:45.449Z,7.85
2018-05-29T01:53:18.472Z,7.32
2018-05-29T01:53:52.280Z,8.50
2018-05-29T01:54:25.317Z,7.32
2018-05-29T01:54:58.344Z,7.93
2018-05-29T01:55:31.404Z,8.07
2018-05-29T01:56:05.197Z,7.10
2018-05-29T01:56:38.220Z,7.57
2018-05-29T01:57:11.378Z,7.37
2018-05-29T01:57:44.400Z,7.82
2018-05-29T01:58:17.429Z,8.35
2018-05-29T01:58:50.477Z,7.72
2018-05-29T01:59:23.503Z,7.78
2018-05-29T01:59:56.528Z,7.57
2018-05-29T02:00:29.564Z,7.80
2018-05-29T02:01:02.602Z,8.50
2018-05-29T02:01:35.627Z,8.52
2018-05-29T02:02:09.422Z,7.43
2018-05-29T02:02:42.457Z,8.25
2018-05-29T02:03:15.485Z,8.82
2018-05-29T02:03:49.309Z,8.07
2018-05-29T02:04:23.162Z,8.68
2018-05-29T02:04:56.280Z,7.75
2018-05-29T02:05:29.465Z,8.48
2018-05-29T02:06:02.504Z,7.50
2018-05-29T02:06:35.537Z,8.45
2018-05-29T02:07:08.558Z,7.80
2018-05-29T02:07:41.593Z,7.70
2018-05-29T02:08:14.624Z,7.87
2018-05-29T02:08:47.648Z,8.63
2018-05-29T02:09:20.688Z,7.90
2018-05-29T02:09:53.732Z,8.80
2018-05-29T02:10:26.746Z,8.40
2018-05-29T02:10:59.775Z,7.85
2018-05-29T02:11:32.805Z,8.55
2018-05-29T02:12:05.828Z,7.70
2018-05-29T02:12:38.849Z,8.70
2018-05-29T02:13:11.898Z,8.23
2018-05-29T02:13:45.085Z,8.45
2018-05-29T02:14:18.116Z,12.70
2018-05-29T02:14:51.160Z,7.40
2018-05-29T02:15:24.189Z,7.90
2018-05-29T02:15:57.216Z,7.62
2018-05-29T02:16:30.249Z,8.23
2018-05-29T02:17:03.289Z,8.43
2018-05-29T02:17:37.080Z,7.97
2018-05-29T02:18:10.109Z,8.63
2018-05-29T02:18:43.144Z,8.38
2018-05-29T02:19:16.174Z,8.85
2018-05-29T02:19:49.233Z,8.15
2018-05-29T02:20:22.390Z,9.40
2018-05-29T02:20:55.413Z,8.75
2018-05-29T02:21:28.541Z,8.45
2018-05-29T02:22:01.565Z,8.55
2018-05-29T02:22:34.620Z,8.32
2018-05-29T02:23:07.648Z,8.75
2018-05-29T02:23:40.965Z,8.90
2018-05-29T02:24:14.009Z,8.38
2018-05-29T02:24:47.044Z,7.80
2018-05-29T02:25:20.152Z,9.95
2018-05-29T02:25:53.188Z,8.75
2018-05-29T02:26:26.220Z,8.32
2018-05-29T02:26:59.252Z,9.02
2018-05-29T02:27:33.056Z,9.02
2018-05-29T02:28:06.844Z,8.45
2018-05-29T02:28:40.637Z,8.65
2018-05-29T02:29:14.449Z,8.98
2018-05-29T02:29:47.465Z,8.77
2018-05-29T02:30:20.615Z,7.82
2018-05-29T02:30:53.648Z,8.98
2018-05-29T02:31:27.432Z,9.55
2018-05-29T02:32:00.456Z,8.70
2018-05-29T02:32:33.484Z,8.73
2018-05-29T02:33:07.269Z,8.82
2018-05-29T02:33:41.064Z,8.30
2018-05-29T02:34:14.875Z,8.55
2018-05-29T02:34:48.661Z,8.45
2018-05-29T02:35:22.452Z,9.32
2018-05-29T02:35:56.287Z,8.73
2018-05-29T02:36:29.450Z,9.07
2018-05-29T02:37:02.495Z,8.32
2018-05-29T02:37:36.295Z,9.50
2018-05-29T02:38:09.341Z,8.70
2018-05-29T02:38:42.380Z,8.27
2018-05-29T02:39:15.567Z,8.43
2018-05-29T02:39:48.581Z,9.43
2018-05-29T02:40:21.609Z,9.20
2018-05-29T02:40:54.668Z,9.20
2018-05-29T02:41:27.715Z,9.20
2018-05-29T02:42:00.747Z,11.23
2018-05-29T02:42:33.769Z,9.32
2018-05-29T02:43:06.983Z,9.35
2018-05-29T02:43:40.012Z,9.93
2018-05-29T02:44:13.040Z,8.82
2018-05-29T02:44:46.069Z,9.15
2018-05-29T02:45:19.852Z,8.98
2018-05-29T02:45:53.645Z,8.75
2018-05-29T02:46:27.456Z,8.63
2018-05-29T02:47:01.252Z,9.40
2018-05-29T02:47:34.463Z,8.85
2018-05-29T02:48:07.501Z,9.65
2018-05-29T02:48:40.537Z,9.20
2018-05-29T02:49:13.580Z,10.43
2018-05-29T02:49:46.622Z,8.13
2018-05-29T02:50:20.408Z,8.85
2018-05-29T02:50:53.437Z,9.48
2018-05-29T02:51:27.229Z,8.73
2018-05-29T02:52:00.268Z,8.95
2018-05-29T02:52:33.293Z,9.05
2018-05-29T02:53:06.326Z,8.82
2018-05-29T02:53:39.399Z,9.45
2018-05-29T02:54:12.569Z,9.32
2018-05-29T02:54:45.616Z,8.90
2018-05-29T02:55:19.413Z,9.50
2018-05-29T02:55:52.436Z,9.63
2018-05-29T02:56:25.504Z,9.60
2018-05-29T02:56:58.531Z,10.15
2018-05-29T02:57:31.555Z,9.73
2018-05-29T02:58:04.567Z,9.00
2018-05-29T02:58:37.590Z,9.43
2018-05-29T02:59:10.616Z,9.35
2018-05-29T02:59:43.670Z,10.18
2018-05-29T03:00:16.698Z,9.88
2018-05-29T03:00:49.801Z,9.40
2018-05-29T03:01:22.840Z,10.18
2018-05-29T03:01:56.629Z,9.30
2018-05-29T03:02:30.437Z,9.45
2018-05-29T03:03:03.476Z,10.23
2018-05-29T03:03:36.612Z,9.40
2018-05-29T03:04:09.636Z,9.43
2018-05-29T03:04:42.762Z,9.85
2018-05-29T03:05:15.795Z,9.07
2018-05-29T03:05:48.821Z,9.57
2018-05-29T03:06:21.857Z,9.82
2018-05-29T03:06:55.653Z,9.10
2018-05-29T03:07:28.685Z,9.45
2018-05-29T03:08:01.789Z,9.40
2018-05-29T03:08:34.755Z,9.07
2018-05-29T03:09:08.554Z,9.35
2018-05-29T03:09:42.398Z,9.98
2018-05-29T03:10:15.412Z,9.20
2018-05-29T03:10:48.441Z,8.85
2018-05-29T03:11:21.465Z,9.13
2018-05-29T03:11:55.252Z,9.07
2018-05-29T03:12:29.042Z,9.35
2018-05-29T03:13:02.068Z,9.18
2018-05-29T03:13:35.091Z,9.13
2018-05-29T03:14:08.892Z,9.85
2018-05-29T03:14:41.932Z,9.35
2018-05-29T03:15:15.733Z,9.85
2018-05-29T03:15:48.777Z,10.05
2018-05-29T03:16:21.812Z,10.13
2018-05-29T03:16:54.928Z,9.70
2018-05-29T03:17:27.948Z,9.77
2018-05-29T03:18:00.996Z,10.30
2018-05-29T03:18:34.023Z,9.25
2018-05-29T03:19:07.060Z,10.15
2018-05-29T03:19:40.109Z,8.93
2018-05-29T03:20:13.140Z,9.90
2018-05-29T03:20:46.943Z,8.77
2018-05-29T03:21:19.979Z,9.68
2018-05-29T03:21:53.002Z,9.32
2018-05-29T03:22:26.036Z,10.52
2018-05-29T03:22:59.064Z,9.75
2018-05-29T03:23:32.093Z,8.80
2018-05-29T03:24:05.113Z,9.48
2018-05-29T03:24:38.145Z,9.65
2018-05-29T03:25:11.957Z,10.70
2018-05-29T03:25:44.993Z,9.52
2018-05-29T03:26:18.026Z,10.43
2018-05-29T03:26:51.064Z,10.57
2018-05-29T03:27:24.848Z,9.25
2018-05-29T03:27:58.648Z,10.43
2018-05-29T03:28:32.441Z,10.10
2018-05-29T03:29:06.317Z,9.55
2018-05-29T03:29:39.356Z,10.10
2018-05-29T03:30:12.433Z,10.73
2018-05-29T03:30:45.484Z,9.95
2018-05-29T03:31:18.536Z,10.05
2018-05-29T03:31:52.321Z,9.50
2018-05-29T03:32:26.108Z,9.50
2018-05-29T03:32:59.894Z,9.57
2018-05-29T03:33:32.941Z,9.35
2018-05-29T03:34:05.981Z,10.63
2018-05-29T03:34:39.001Z,10.75
2018-05-29T03:35:12.025Z,9.32
2018-05-29T03:35:45.824Z,9.32
2018-05-29T03:36:19.005Z,9.88
2018-05-29T03:36:52.185Z,9.65
2018-05-29T03:37:25.211Z,10.15
2018-05-29T03:37:58.246Z,10.50
2018-05-29T03:38:31.512Z,9.52
2018-05-29T03:39:04.575Z,10.07
2018-05-29T03:39:38.350Z,9.57
2018-05-29T03:40:11.405Z,9.93
2018-05-29T03:40:44.473Z,9.68
2018-05-29T03:41:17.517Z,10.40
2018-05-29T03:41:50.540Z,9.73
2018-05-29T03:42:24.342Z,9.48
2018-05-29T03:42:58.125Z,10.70
2018-05-29T03:43:31.155Z,10.20
2018-05-29T03:44:04.196Z,10.93
2018-05-29T03:44:37.259Z,9.48
2018-05-29T03:45:10.290Z,9.90
2018-05-29T03:45:43.343Z,10.43
2018-05-29T03:46:16.364Z,11.00
2018-05-29T03:46:49.400Z,9.98
2018-05-29T03:47:22.432Z,10.27
2018-05-29T03:47:55.465Z,10.30
2018-05-29T03:48:29.264Z,10.65
2018-05-29T03:49:02.290Z,10.13
2018-05-29T03:49:36.093Z,11.55
2018-05-29T03:50:09.133Z,11.63
2018-05-29T03:50:42.166Z,10.38
2018-05-29T03:51:15.203Z,11.07
2018-05-29T03:51:49.024Z,10.80
2018-05-29T03:52:22.057Z,10.63
2018-05-29T03:52:55.173Z,12.20
2018-05-29T03:53:28.213Z,11.20
2018-05-29T03:54:01.341Z,11.43
2018-05-29T03:54:34.384Z,11.32
2018-05-29T03:55:07.416Z,9.85
2018-05-29T03:55:40.461Z,10.05
2018-05-29T03:56:13.492Z,10.65
2018-05-29T03:56:46.535Z,10.40
2018-05-29T03:57:19.581Z,11.32
2018-05-29T03:57:52.602Z,11.32
2018-05-29T03:58:25.637Z,10.57
2018-05-29T03:58:58.684Z,10.70
2018-05-29T03:59:31.722Z,11.05
2018-05-29T04:00:04.752Z,10.63
2018-05-29T04:00:38.581Z,12.00
2018-05-29T04:01:11.629Z,10.90
2018-05-29T04:01:44.661Z,12.70
2018-05-29T04:02:17.704Z,10.88
2018-05-29T04:02:50.774Z,10.90
2018-05-29T04:03:24.021Z,11.43
2018-05-29T04:03:57.390Z,11.75
2018-05-29T04:04:30.425Z,10.20
2018-05-29T04:05:04.238Z,11.23
2018-05-29T04:05:37.296Z,10.88
2018-05-29T04:06:11.095Z,11.80
2018-05-29T04:06:44.135Z,11.68
2018-05-29T04:07:17.177Z,12.27
2018-05-29T04:07:50.208Z,10.93
2018-05-29T04:08:24.029Z,10.88
2018-05-29T04:08:57.063Z,11.00
2018-05-29T04:09:30.111Z,10.98
2018-05-29T04:10:03.171Z,11.57
2018-05-29T04:10:36.209Z,11.52
2018-05-29T04:11:10.033Z,12.05
2018-05-29T04:11:43.084Z,12.77
2018-05-29T04:12:16.124Z,10.52
2018-05-29T04:12:49.167Z,11.30
2018-05-29T04:13:22.205Z,11.68
2018-05-29T04:13:55.430Z,11.70
2018-05-29T04:14:28.480Z,12.80
2018-05-29T04:15:01.532Z,11.68
2018-05-29T04:15:34.591Z,12.18
2018-05-29T04:16:07.912Z,11.20
2018-05-29T04:16:40.961Z,11.35
2018-05-29T04:17:14.756Z,11.60
2018-05-29T04:17:48.579Z,11.55
2018-05-29T04:18:21.622Z,10.90
2018-05-29T04:18:54.664Z,12.10
2018-05-29T04:19:27.719Z,11.75
2018-05-29T04:20:00.757Z,11.35
2018-05-29T04:20:33.801Z,11.27
2018-05-29T04:21:06.836Z,11.68
2018-05-29T04:21:39.879Z,11.52
2018-05-29T04:22:12.995Z,11.32
2018-05-29T04:22:46.065Z,11.88
2018-05-29T04:23:19.106Z,11.90
2018-05-29T04:23:52.156Z,12.75
2018-05-29T04:24:25.237Z,11.90
2018-05-29T04:24:58.250Z,12.07
2018-05-29T04:25:32.083Z,11.65
2018-05-29T04:26:05.152Z,11.73
2018-05-29T04:26:38.204Z,11.90
2018-05-29T04:27:11.265Z,12.40
2018-05-29T04:27:44.301Z,11.93
2018-05-29T04:28:17.361Z,11.57
2018-05-29T04:28:50.399Z,11.90
2018-05-29T04:29:23.428Z,12.60
2018-05-29T04:29:57.242Z,13.02
2018-05-29T04:30:30.280Z,11.23
2018-05-29T04:31:03.342Z,12.07
2018-05-29T04:31:36.372Z,11.93
2018-05-29T04:32:09.585Z,12.52
2018-05-29T04:32:42.607Z,12.90
2018-05-29T04:33:15.649Z,11.73
2018-05-29T04:33:48.690Z,12.55
2018-05-29T04:34:21.729Z,12.07
2018-05-29T04:34:54.755Z,11.90
2018-05-29T04:35:28.037Z,12.85
2018-05-29T04:36:01.108Z,12.20
2018-05-29T04:36:34.136Z,13.00
2018-05-29T04:37:07.941Z,12.48
2018-05-29T04:37:40.991Z,12.35
2018-05-29T04:38:14.018Z,12.50
2018-05-29T04:38:47.082Z,12.20
2018-05-29T04:39:20.118Z,12.00
2018-05-29T04:39:53.924Z,12.23
2018-05-29T04:40:26.971Z,11.65
2018-05-29T04:41:00.012Z,12.07
2018-05-29T04:41:33.053Z,12.27
2018-05-29T04:42:06.097Z,11.85
2018-05-29T04:42:39.141Z,12.95
2018-05-29T04:43:12.169Z,13.50
2018-05-29T04:43:46.018Z,11.57
2018-05-29T04:44:19.017Z,11.25
2018-05-29T04:44:52.056Z,13.02
2018-05-29T04:45:25.084Z,12.65
2018-05-29T04:45:58.911Z,12.15
2018-05-29T04:46:31.941Z,12.32
2018-05-29T04:47:05.776Z,11.70
2018-05-29T04:47:39.560Z,12.02
2018-05-29T04:48:12.584Z,12.73
2018-05-29T04:48:45.632Z,12.70
2018-05-29T04:49:18.668Z,12.73
2018-05-29T04:49:51.708Z,13.00
2018-05-29T04:50:24.732Z,11.55
2018-05-29T04:50:57.793Z,12.60
2018-05-29T04:51:31.624Z,13.00
2018-05-29T04:52:04.661Z,13.10
2018-05-29T04:52:37.702Z,12.45
2018-05-29T04:53:10.736Z,11.82
2018-05-29T04:53:43.761Z,12.10
2018-05-29T04:54:17.577Z,12.40
2018-05-29T04:54:50.631Z,12.07
2018-05-29T04:55:23.668Z,12.60
2018-05-29T04:55:56.708Z,12.20
2018-05-29T04:56:29.778Z,11.77
2018-05-29T04:57:03.581Z,13.10
2018-05-29T04:57:36.620Z,13.02
2018-05-29T04:58:09.674Z,13.07
2018-05-29T04:58:42.688Z,12.45
2018-05-29T04:59:15.725Z,13.50
2018-05-29T04:59:48.764Z,12.10
2018-05-29T05:00:21.796Z,11.23
2018-05-29T05:00:55.598Z,12.50
2018-05-29T05:01:29.416Z,11.93
2018-05-29T05:02:02.449Z,11.90
2018-05-29T05:02:35.637Z,11.65
2018-05-29T05:03:08.616Z,11.70
2018-05-29T05:03:41.649Z,12.32
2018-05-29T05:04:14.682Z,12.85
2018-05-29T05:04:48.502Z,12.10
2018-05-29T05:05:21.545Z,12.85
2018-05-29T05:05:54.594Z,12.63
2018-05-29T05:06:27.644Z,12.88
2018-05-29T05:07:00.719Z,11.90
2018-05-29T05:07:33.726Z,12.00
2018-05-29T05:08:07.533Z,12.18
2018-05-29T05:08:40.572Z,12.37
2018-05-29T05:09:13.616Z,13.02
2018-05-29T05:09:46.657Z,12.82
2018-05-29T05:10:19.695Z,12.27
2018-05-29T05:10:52.732Z,12.70
2018-05-29T05:11:25.791Z,12.40
2018-05-29T05:11:58.841Z,15.57
2018-05-29T05:12:31.967Z,12.45
2018-05-29T05:13:05.010Z,13.15
2018-05-29T05:13:38.036Z,12.15
2018-05-29T05:14:11.077Z,12.95
2018-05-29T05:14:44.120Z,12.50
2018-05-29T05:15:17.241Z,12.23
2018-05-29T05:15:50.272Z,11.93
2018-05-29T05:16:24.091Z,12.75
2018-05-29T05:16:57.124Z,12.90
2018-05-29T05:17:30.148Z,12.93
2018-05-29T05:18:03.203Z,11.32
2018-05-29T05:18:36.309Z,12.75
2018-05-29T05:19:09.343Z,12.82
2018-05-29T05:19:42.369Z,13.30
2018-05-29T05:20:15.457Z,12.90
2018-05-29T05:20:48.464Z,12.82
2018-05-29T05:21:21.536Z,12.05
2018-05-29T05:21:55.351Z,11.98
2018-05-29T05:22:28.391Z,12.63
2018-05-29T05:23:01.444Z,12.82
2018-05-29T05:23:34.527Z,12.77
2018-05-29T05:24:07.575Z,12.45
2018-05-29T05:24:40.649Z,12.07
2018-05-29T05:25:13.692Z,12.52
2018-05-29T05:25:46.730Z,12.70
2018-05-29T05:26:19.785Z,12.10
2018-05-29T05:26:52.817Z,12.40
2018-05-29T05:27:25.848Z,12.57
2018-05-29T05:27:58.896Z,12.07
2018-05-29T05:28:31.936Z,12.13
2018-05-29T05:29:04.976Z,11.50
2018-05-29T05:29:38.017Z,12.85
2018-05-29T05:30:11.044Z,11.57
2018-05-29T05:30:44.087Z,11.75
2018-05-29T05:31:17.130Z,12.37
2018-05-29T05:31:50.188Z,12.00
2018-05-29T05:32:23.224Z,11.70
2018-05-29T05:32:56.269Z,13.07
2018-05-29T05:33:29.318Z,12.07
2018-05-29T05:34:02.352Z,11.48
2018-05-29T05:34:35.400Z,12.85
2018-05-29T05:35:08.440Z,12.73
2018-05-29T05:35:41.493Z,12.40
2018-05-29T05:36:15.288Z,12.50
2018-05-29T05:36:49.145Z,11.52
2018-05-29T05:37:22.165Z,11.80
2018-05-29T05:37:55.204Z,11.98
2018-05-29T05:38:28.257Z,12.75
2018-05-29T05:39:01.294Z,12.00
2018-05-29T05:39:34.325Z,11.40
2018-05-29T05:40:07.368Z,11.60
2018-05-29T05:40:40.417Z,11.73
2018-05-29T05:41:13.448Z,11.50
2018-05-29T05:41:46.501Z,11.40
2018-05-29T05:42:19.730Z,13.13
2018-05-29T05:42:52.764Z,11.77
2018-05-29T05:43:25.793Z,13.02
2018-05-29T05:43:59.605Z,11.77
2018-05-29T05:44:32.640Z,12.07
2018-05-29T05:45:05.689Z,11.85
2018-05-29T05:45:38.724Z,12.32
2018-05-29T05:46:11.759Z,12.23
2018-05-29T05:46:44.825Z,12.45
2018-05-29T05:47:17.869Z,11.55
2018-05-29T05:47:50.898Z,12.60
2018-05-29T05:48:24.733Z,12.55
2018-05-29T05:48:57.757Z,11.95
2018-05-29T05:49:31.582Z,11.70
2018-05-29T05:50:04.607Z,12.05
2018-05-29T05:50:37.648Z,12.60
2018-05-29T05:51:10.729Z,12.48
2018-05-29T05:51:43.776Z,11.25
2018-05-29T05:52:16.816Z,11.48
2018-05-29T05:52:49.920Z,12.52
2018-05-29T05:53:22.912Z,12.13
2018-05-29T05:53:55.941Z,11.82
2018-05-29T05:54:28.964Z,13.35
2018-05-29T05:55:02.027Z,12.48
2018-05-29T05:55:35.059Z,12.52
2018-05-29T05:56:08.105Z,12.15
2018-05-29T05:56:41.157Z,12.52
2018-05-29T05:57:14.220Z,12.15
2018-05-29T05:57:47.251Z,11.90
2018-05-29T05:58:20.288Z,11.48
2018-05-29T05:58:53.324Z,11.60
2018-05-29T05:59:27.129Z,12.52
2018-05-29T06:00:00.952Z,12.00
2018-05-29T06:00:34.013Z,11.55
2018-05-29T06:01:07.053Z,11.93
2018-05-29T06:01:40.101Z,13.10
2018-05-29T06:02:13.137Z,11.23
2018-05-29T06:02:46.183Z,12.07
2018-05-29T06:03:19.213Z,11.75
2018-05-29T06:03:52.240Z,13.45
2018-05-29T06:04:26.045Z,13.50
2018-05-29T06:04:59.072Z,10.77
2018-05-29T06:05:32.112Z,11.75
2018-05-29T06:06:05.153Z,12.27
2018-05-29T06:06:38.192Z,12.27
2018-05-29T06:07:12.025Z,11.68
2018-05-29T06:07:45.846Z,12.20
2018-05-29T06:08:18.877Z,11.48
2018-05-29T06:08:51.909Z,11.43
2018-05-29T06:09:24.940Z,11.43
2018-05-29T06:09:58.780Z,11.35
2018-05-29T06:10:31.817Z,12.05
2018-05-29T06:11:04.847Z,11.63
2018-05-29T06:11:37.932Z,11.45
2018-05-29T06:12:11.004Z,11.70
2018-05-29T06:12:44.056Z,11.63
2018-05-29T06:13:17.153Z,11.65
2018-05-29T06:13:50.254Z,11.57
2018-05-29T06:14:24.068Z,12.45
2018-05-29T06:14:57.088Z,12.30
2018-05-29T06:15:30.120Z,11.77
2018-05-29T06:16:03.195Z,11.82
2018-05-29T06:16:36.983Z,12.35
2018-05-29T06:17:10.020Z,11.70
2018-05-29T06:17:43.061Z,11.23
2018-05-29T06:18:16.096Z,12.10
2018-05-29T06:18:49.929Z,11.77
2018-05-29T06:19:22.980Z,11.82
2018-05-29T06:19:56.017Z,12.60
2018-05-29T06:20:29.041Z,13.05
2018-05-29T06:21:02.124Z,12.32
2018-05-29T06:21:35.169Z,12.00
2018-05-29T06:22:08.216Z,12.73
2018-05-29T06:22:41.253Z,12.73
2018-05-29T06:23:14.287Z,11.68
2018-05-29T06:23:47.332Z,11.90
2018-05-29T06:24:21.161Z,12.25
2018-05-29T06:24:54.181Z,11.48
2018-05-29T06:25:27.217Z,12.20
2018-05-29T06:26:00.252Z,11.88
2018-05-29T06:26:33.300Z,12.52
2018-05-29T06:27:06.365Z,13.62
2018-05-29T06:27:39.396Z,12.00
2018-05-29T06:28:13.212Z,11.93
2018-05-29T06:28:46.251Z,12.07
2018-05-29T06:29:19.282Z,11.27
2018-05-29T06:29:52.335Z,12.48
2018-05-29T06:30:25.380Z,12.32
2018-05-29T06:30:58.414Z,11.65
2018-05-29T06:31:31.449Z,12.57
2018-05-29T06:32:04.494Z,12.05
2018-05-29T06:32:37.536Z,11.10
2018-05-29T06:33:10.581Z,11.80
2018-05-29T06:33:43.608Z,10.95
2018-05-29T06:34:16.757Z,12.00
2018-05-29T06:34:49.785Z,12.50
2018-05-29T06:35:22.829Z,13.70
2018-05-29T06:35:55.879Z,12.48
2018-05-29T06:36:28.908Z,12.23
2018-05-29T06:37:01.970Z,12.18
2018-05-29T06:37:35.019Z,13.62
2018-05-29T06:38:08.091Z,12.70
2018-05-29T06:38:41.112Z,11.65
2018-05-29T06:39:14.918Z,11.75
2018-05-29T06:39:47.992Z,12.60
2018-05-29T06:40:21.031Z,12.35
2018-05-29T06:40:54.070Z,11.75
2018-05-29T06:41:27.113Z,12.50
2018-05-29T06:42:00.148Z,12.32
2018-05-29T06:42:33.208Z,12.07
2018-05-29T06:43:06.363Z,11.77
2018-05-29T06:43:39.416Z,15.65
2018-05-29T06:44:12.530Z,11.65
2018-05-29T06:44:45.560Z,12.32
2018-05-29T06:45:18.605Z,11.10
2018-05-29T06:45:51.641Z,11.15
2018-05-29T06:46:24.830Z,10.45
2018-05-29T06:46:57.864Z,11.27
2018-05-29T06:47:31.689Z,11.45
2018-05-29T06:48:04.722Z,11.75
2018-05-29T06:48:38.519Z,11.55
2018-05-29T06:49:12.320Z,12.85
2018-05-29T06:49:46.118Z,12.18
2018-05-29T06:50:19.169Z,11.48
2018-05-29T06:50:52.184Z,11.57
2018-05-29T06:51:25.232Z,11.40
2018-05-29T06:51:59.036Z,10.65
2018-05-29T06:52:32.152Z,11.77
2018-05-29T06:53:05.913Z,10.63
2018-05-29T06:53:38.949Z,10.90
2018-05-29T06:54:11.988Z,11.80
2018-05-29T06:54:45.024Z,11.18
2018-05-29T06:55:18.055Z,11.60
2018-05-29T06:55:51.092Z,11.07
2018-05-29T06:56:24.114Z,10.95
2018-05-29T06:56:57.153Z,11.18
2018-05-29T06:57:30.226Z,10.63
2018-05-29T06:58:03.288Z,10.73
2018-05-29T06:58:36.363Z,11.23
2018-05-29T06:59:09.392Z,13.80
2018-05-29T06:59:42.425Z,10.98
2018-05-29T07:00:15.505Z,11.02
2018-05-29T07:00:48.535Z,10.82
2018-05-29T07:01:22.325Z,10.02
2018-05-29T07:01:55.360Z,12.23
2018-05-29T07:02:28.390Z,10.50
2018-05-29T07:03:01.416Z,11.25
2018-05-29T07:03:34.555Z,10.88
2018-05-29T07:04:07.500Z,11.12
2018-05-29T07:04:41.305Z,11.15
2018-05-29T07:05:15.116Z,10.57
2018-05-29T07:05:48.149Z,10.95
2018-05-29T07:06:21.209Z,10.85
2018-05-29T07:06:54.264Z,10.25
2018-05-29T07:07:27.303Z,10.55
2018-05-29T07:08:00.333Z,10.48
2018-05-29T07:08:33.372Z,10.02
2018-05-29T07:09:06.408Z,11.48
2018-05-29T07:09:39.464Z,9.80
2018-05-29T07:10:12.502Z,10.38
2018-05-29T07:10:45.557Z,12.95
2018-05-29T07:11:18.645Z,10.20
2018-05-29T07:11:51.684Z,10.75
2018-05-29T07:12:24.733Z,10.90
2018-05-29T07:12:57.765Z,9.85
2018-05-29T07:13:30.781Z,13.00
2018-05-29T07:14:03.828Z,9.73
2018-05-29T07:14:36.899Z,10.40